Time;durP1;ratioP1;P1;durP2;ratioP2;P2;SDS_P1;SDS_P2;PMS_P1;PMS_P2;Temp;Humidity;BMP_temperature;BMP_pressure;BME280_temperature;BME280_humidity;BME280_pressure;Samples;Min_cycle;Max_cycle;Signal;HPM_P1;HPM_P2
2023/07/07 00:00:14;;;;;;;0.70;0.70;;;25.10;82.90;;;;;;5104935;27;20200;-85
2023/07/07 00:02:42;;;;;;;0.60;0.60;;;25.10;83.00;;;;;;5107443;27;20215;-82
2023/07/07 00:05:10;;;;;;;0.77;0.40;;;25.10;83.20;;;;;;5116132;27;20199;-82
2023/07/07 00:07:39;;;;;;;0.43;0.43;;;25.10;83.00;;;;;;5104430;27;20225;-83
2023/07/07 00:10:09;;;;;;;0.40;0.40;;;25.10;83.00;;;;;;5115220;27;20209;-82
2023/07/07 00:12:37;;;;;;;0.55;0.55;;;25.10;82.90;;;;;;5100916;27;20201;-83
2023/07/07 00:15:08;;;;;;;2.15;1.17;;;25.10;84.20;;;;;;5115735;27;20205;-83
2023/07/07 00:17:41;;;;;;;1.33;1.13;;;25.10;84.60;;;;;;5104499;27;20202;-82
2023/07/07 00:20:12;;;;;;;2.00;1.02;;;25.10;85.10;;;;;;5108154;27;20198;-82
2023/07/07 00:22:40;;;;;;;1.35;1.25;;;25.10;84.80;;;;;;5108854;27;20185;-83
2023/07/07 00:25:10;;;;;;;0.57;0.38;;;25.10;86.60;;;;;;5103446;27;20209;-82
2023/07/07 00:27:39;;;;;;;1.17;1.08;;;25.00;86.30;;;;;;5108752;27;20532;-83
2023/07/07 00:30:08;;;;;;;0.77;0.57;;;25.00;87.00;;;;;;5105793;27;20194;-83
2023/07/07 00:32:38;;;;;;;0.68;0.50;;;25.00;87.70;;;;;;5095991;27;20659;-84
2023/07/07 00:35:08;;;;;;;1.88;1.08;;;25.00;87.50;;;;;;5101057;27;20248;-83
2023/07/07 00:37:36;;;;;;;1.42;0.98;;;24.90;88.00;;;;;;5094625;27;20201;-83
2023/07/07 00:40:06;;;;;;;0.65;0.65;;;24.80;87.90;;;;;;5104837;27;20186;-83
2023/07/07 00:42:35;;;;;;;2.17;0.85;;;24.80;88.30;;;;;;5109737;27;20236;-83
2023/07/07 00:45:19;;;;;;;3.13;0.75;;;24.80;88.20;;;;;;5109085;27;20194;-83
2023/07/07 00:47:56;;;;;;;2.35;0.73;;;24.70;88.00;;;;;;5109228;27;20199;-83
2023/07/07 00:50:29;;;;;;;1.40;1.25;;;24.70;88.00;;;;;;5097770;27;20559;-81
2023/07/07 00:52:57;;;;;;;0.43;0.43;;;24.70;87.70;;;;;;5110785;27;20204;-81
2023/07/07 00:55:30;;;;;;;0.45;0.43;;;24.60;87.50;;;;;;5118270;27;20213;-83
2023/07/07 00:58:02;;;;;;;0.40;0.40;;;24.60;87.20;;;;;;5113151;27;20184;-82
2023/07/07 01:00:32;;;;;;;0.75;0.52;;;24.60;87.00;;;;;;5120651;27;20199;-82
2023/07/07 01:03:07;;;;;;;0.98;0.80;;;24.60;87.00;;;;;;5096058;27;20197;-84
2023/07/07 01:05:37;;;;;;;0.85;0.85;;;24.60;87.20;;;;;;5110286;27;20215;-80
2023/07/07 01:08:07;;;;;;;0.52;0.52;;;24.60;87.20;;;;;;5107406;27;20228;-84
2023/07/07 01:10:35;;;;;;;1.48;0.88;;;24.60;87.10;;;;;;5117662;27;20222;-83
2023/07/07 01:13:06;;;;;;;0.95;0.93;;;24.60;87.10;;;;;;5111058;27;20579;-82
2023/07/07 01:15:40;;;;;;;0.45;0.43;;;24.50;87.10;;;;;;5111035;27;20188;-83
2023/07/07 01:18:23;;;;;;;0.52;0.52;;;24.50;87.30;;;;;;5107149;27;20198;-82
2023/07/07 01:21:02;;;;;;;0.60;0.60;;;24.50;87.20;;;;;;5101361;28;20678;-83
2023/07/07 01:24:06;;;;;;;0.40;0.40;;;24.50;87.00;;;;;;5095704;28;20221;-83
2023/07/07 01:26:55;;;;;;;0.80;0.60;;;24.50;87.20;;;;;;5104814;27;20195;-83
2023/07/07 01:29:55;;;;;;;0.20;0.20;;;24.50;87.60;;;;;;5096331;27;20190;-82
2023/07/07 01:32:29;;;;;;;0.98;0.85;;;24.50;87.70;;;;;;5097070;27;20193;-82
2023/07/07 01:35:00;;;;;;;1.55;0.80;;;24.50;87.80;;;;;;5093155;28;20650;-81
2023/07/07 01:37:28;;;;;;;2.13;0.52;;;24.40;88.80;;;;;;5106431;27;20287;-84
2023/07/07 01:39:57;;;;;;;0.57;0.47;;;24.40;88.50;;;;;;5109307;27;20189;-82
2023/07/07 01:42:31;;;;;;;3.22;0.93;;;24.40;88.70;;;;;;5097453;27;20229;-84
2023/07/07 01:45:09;;;;;;;0.68;0.50;;;24.30;88.60;;;;;;5091221;28;20184;-83
2023/07/07 01:47:40;;;;;;;1.30;1.20;;;24.30;89.10;;;;;;5097922;27;20190;-81
2023/07/07 01:50:16;;;;;;;0.47;0.38;;;24.30;88.80;;;;;;5095519;28;20343;-83
2023/07/07 01:52:48;;;;;;;10.60;1.23;;;24.30;88.60;;;;;;5101109;27;20197;-83
2023/07/07 01:55:21;;;;;;;0.55;0.55;;;24.30;88.50;;;;;;5111253;27;20188;-83
2023/07/07 01:57:53;;;;;;;0.52;0.52;;;24.30;88.60;;;;;;5114470;27;20207;-83
2023/07/07 02:00:23;;;;;;;0.88;0.50;;;24.30;89.20;;;;;;5102118;27;20243;-82
2023/07/07 02:02:53;;;;;;;1.83;1.52;;;24.30;89.80;;;;;;5113143;27;20215;-83
2023/07/07 02:05:22;;;;;;;0.77;0.77;;;24.30;90.00;;;;;;5113890;27;20215;-83
2023/07/07 02:07:50;;;;;;;1.05;0.50;;;24.20;90.00;;;;;;5106716;27;20216;-84
2023/07/07 02:10:19;;;;;;;0.88;0.68;;;24.20;90.00;;;;;;5094054;27;20201;-81
2023/07/07 02:12:48;;;;;;;0.30;0.30;;;24.30;89.80;;;;;;5102088;27;20194;-83
2023/07/07 02:15:16;;;;;;;0.32;0.32;;;24.20;89.70;;;;;;5105459;28;20195;-83
2023/07/07 02:17:45;;;;;;;0.40;0.40;;;24.20;89.60;;;;;;5097697;27;20280;-82
2023/07/07 02:20:15;;;;;;;1.02;0.80;;;24.20;89.60;;;;;;5101342;27;20200;-83
2023/07/07 02:22:43;;;;;;;0.40;0.40;;;24.20;89.50;;;;;;5109777;27;20623;-83
2023/07/07 02:25:11;;;;;;;0.98;0.60;;;24.20;89.50;;;;;;5107023;27;20196;-83
2023/07/07 02:27:40;;;;;;;0.35;0.35;;;24.20;89.50;;;;;;5102504;27;20204;-81
2023/07/07 02:30:09;;;;;;;0.57;0.57;;;24.20;89.50;;;;;;5099464;28;20562;-83
2023/07/07 02:32:37;;;;;;;0.73;0.60;;;24.20;89.50;;;;;;5107292;28;20226;-83
2023/07/07 02:35:07;;;;;;;0.30;0.30;;;24.20;89.70;;;;;;5111080;27;20280;-83
2023/07/07 02:37:38;;;;;;;0.60;0.45;;;24.20;89.60;;;;;;5101567;27;21049;-84
2023/07/07 02:40:09;;;;;;;0.20;0.20;;;24.20;89.60;;;;;;5103330;27;20185;-84
2023/07/07 02:42:37;;;;;;;1.27;1.13;;;24.20;89.60;;;;;;5099385;27;20223;-82
2023/07/07 02:45:07;;;;;;;0.40;0.40;;;24.30;89.80;;;;;;5097246;28;20284;-84
2023/07/07 02:47:35;;;;;;;1.58;0.93;;;24.20;90.00;;;;;;5105931;28;20558;-82
2023/07/07 02:50:04;;;;;;;0.80;0.57;;;24.30;90.00;;;;;;5111463;27;20211;-81
2023/07/07 02:52:32;;;;;;;1.17;0.80;;;24.30;90.00;;;;;;5095641;28;20564;-81
2023/07/07 02:55:02;;;;;;;2.05;0.88;;;24.30;90.10;;;;;;5097444;28;20204;-82
2023/07/07 02:57:31;;;;;;;1.05;0.57;;;24.30;90.70;;;;;;5110504;28;20193;-83
2023/07/07 02:59:59;;;;;;;1.40;0.57;;;24.30;90.80;;;;;;5100008;28;20240;-82
2023/07/07 03:02:28;;;;;;;1.05;0.77;;;24.30;90.90;;;;;;5098754;28;20214;-83
2023/07/07 03:04:56;;;;;;;0.40;0.40;;;24.30;91.40;;;;;;5095701;28;20192;-83
2023/07/07 03:07:24;;;;;;;0.85;0.80;;;24.30;91.60;;;;;;5095704;28;20650;-83
2023/07/07 03:09:53;;;;;;;0.38;0.38;;;24.30;91.70;;;;;;5109306;27;20205;-84
2023/07/07 03:12:22;;;;;;;1.42;1.33;;;24.30;91.90;;;;;;5108375;27;20197;-84
2023/07/07 03:14:54;;;;;;;2.80;0.75;;;24.20;91.90;;;;;;5103220;27;20219;-83
2023/07/07 03:17:22;;;;;;;1.95;1.05;;;24.20;92.10;;;;;;5107768;27;20220;-83
2023/07/07 03:19:51;;;;;;;1.10;0.80;;;24.20;92.20;;;;;;5103377;27;20208;-81
2023/07/07 03:22:19;;;;;;;0.98;0.50;;;24.20;92.10;;;;;;5099626;27;20712;-82
2023/07/07 03:24:51;;;;;;;1.50;1.35;;;24.20;92.10;;;;;;5098565;27;20185;-82
2023/07/07 03:27:19;;;;;;;0.55;0.52;;;24.20;92.00;;;;;;5094295;28;20190;-82
2023/07/07 03:29:50;;;;;;;1.85;0.73;;;24.20;92.00;;;;;;5107652;27;20193;-82
2023/07/07 03:32:19;;;;;;;1.17;0.40;;;24.20;91.90;;;;;;5098602;27;20221;-80
2023/07/07 03:34:49;;;;;;;0.57;0.57;;;24.20;91.70;;;;;;5094861;27;20197;-82
2023/07/07 03:37:19;;;;;;;0.30;0.30;;;24.20;91.70;;;;;;5113634;27;20533;-83
2023/07/07 03:39:47;;;;;;;1.75;1.33;;;24.20;91.60;;;;;;5099349;27;20198;-82
2023/07/07 03:42:16;;;;;;;7.25;0.88;;;24.20;91.50;;;;;;5095631;28;20192;-83
2023/07/07 03:44:44;;;;;;;0.65;0.65;;;24.20;91.40;;;;;;5093982;28;20197;-84
2023/07/07 03:47:14;;;;;;;1.85;0.90;;;24.20;91.40;;;;;;5095006;27;20194;-82
2023/07/07 03:49:42;;;;;;;0.85;0.77;;;24.30;91.30;;;;;;5105471;28;20201;-85
2023/07/07 03:52:12;;;;;;;1.98;0.75;;;24.30;91.20;;;;;;5101169;28;20198;-84
2023/07/07 03:54:42;;;;;;;1.48;0.60;;;24.30;91.10;;;;;;5098825;27;20296;-84
2023/07/07 03:57:11;;;;;;;0.68;0.65;;;24.40;91.20;;;;;;5097125;27;20193;-84
2023/07/07 03:59:40;;;;;;;0.55;0.55;;;24.40;91.10;;;;;;5107077;27;20190;-83
2023/07/07 04:02:08;;;;;;;1.55;0.70;;;24.40;91.10;;;;;;5100830;27;20228;-83
2023/07/07 04:04:38;;;;;;;0.30;0.30;;;24.40;91.00;;;;;;5107844;27;20289;-82
2023/07/07 04:07:07;;;;;;;3.92;0.30;;;24.50;91.10;;;;;;5112310;27;20185;-83
2023/07/07 04:09:35;;;;;;;0.30;0.30;;;24.50;91.00;;;;;;5113221;27;20661;-83
2023/07/07 04:12:08;;;;;;;0.65;0.65;;;24.50;91.00;;;;;;5115940;27;20189;-83
2023/07/07 04:14:37;;;;;;;1.48;0.57;;;24.60;91.00;;;;;;5107709;27;20650;-83
2023/07/07 04:17:06;;;;;;;0.50;0.40;;;24.60;91.00;;;;;;5101311;28;20309;-83
2023/07/07 04:19:34;;;;;;;0.22;0.22;;;24.60;91.00;;;;;;5111822;27;20639;-82
2023/07/07 04:22:04;;;;;;;1.50;0.80;;;24.60;90.90;;;;;;5098909;27;20192;-83
2023/07/07 04:24:33;;;;;;;0.47;0.40;;;24.60;91.00;;;;;;5122998;27;20274;-83
2023/07/07 04:27:02;;;;;;;1.08;0.95;;;24.70;91.00;;;;;;5116358;27;20197;-82
2023/07/07 04:29:30;;;;;;;0.85;0.70;;;24.70;91.00;;;;;;5108736;28;20680;-83
2023/07/07 04:31:59;;;;;;;0.38;0.38;;;24.70;91.20;;;;;;5107043;27;20733;-82
2023/07/07 04:34:29;;;;;;;0.60;0.60;;;24.70;91.40;;;;;;5100508;28;20189;-83
2023/07/07 04:36:58;;;;;;;1.60;1.00;;;24.70;91.50;;;;;;5113354;27;20233;-82
2023/07/07 04:39:27;;;;;;;1.30;1.08;;;24.70;91.60;;;;;;5111815;27;20223;-82
2023/07/07 04:41:55;;;;;;;1.05;0.93;;;24.80;91.70;;;;;;5104124;27;20189;-83
2023/07/07 04:44:24;;;;;;;0.65;0.63;;;24.80;91.60;;;;;;5119847;27;20263;-83
2023/07/07 04:46:52;;;;;;;2.67;1.55;;;24.80;91.60;;;;;;5093313;27;20206;-81
2023/07/07 04:49:23;;;;;;;0.95;0.75;;;24.80;91.50;;;;;;5099555;27;20609;-83
2023/07/07 04:51:51;;;;;;;1.33;0.98;;;24.80;91.50;;;;;;5113499;27;20199;-81
2023/07/07 04:54:19;;;;;;;2.38;1.45;;;24.80;91.50;;;;;;5110973;27;20582;-82
2023/07/07 04:56:49;;;;;;;1.27;0.82;;;24.80;91.30;;;;;;5123793;27;20283;-82
2023/07/07 04:59:18;;;;;;;1.10;1.00;;;24.90;91.30;;;;;;5107846;27;20551;-81
2023/07/07 05:01:46;;;;;;;2.17;0.80;;;24.80;91.40;;;;;;5109519;27;20201;-82
2023/07/07 05:04:15;;;;;;;1.10;0.93;;;24.90;91.30;;;;;;5089283;27;20309;-81
2023/07/07 05:06:44;;;;;;;1.65;0.98;;;25.00;91.30;;;;;;5096575;27;20254;-83
2023/07/07 05:09:14;;;;;;;0.93;0.77;;;25.00;91.40;;;;;;5109707;27;20232;-84
2023/07/07 05:11:42;;;;;;;0.93;0.70;;;25.00;91.30;;;;;;5107738;27;20201;-84
2023/07/07 05:14:12;;;;;;;1.42;1.30;;;25.00;91.10;;;;;;5101269;27;20194;-86
2023/07/07 05:16:40;;;;;;;2.95;1.50;;;25.00;91.00;;;;;;5103277;27;20204;-83
2023/07/07 05:19:09;;;;;;;35.05;1.63;;;25.00;91.00;;;;;;5100903;28;20192;-82
2023/07/07 05:21:37;;;;;;;0.98;0.75;;;25.10;91.00;;;;;;5096441;28;20193;-85
2023/07/07 05:24:06;;;;;;;1.17;0.82;;;25.20;91.00;;;;;;5103013;27;20220;-85
2023/07/07 05:26:34;;;;;;;2.35;1.17;;;25.10;90.70;;;;;;5096474;28;20197;-83
2023/07/07 05:29:05;;;;;;;1.02;0.93;;;25.00;90.20;;;;;;5097253;27;20220;-84
2023/07/07 05:31:35;;;;;;;0.95;0.60;;;25.00;90.10;;;;;;5094870;27;20280;-84
2023/07/07 05:34:04;;;;;;;1.15;0.90;;;25.00;90.10;;;;;;5106569;27;20188;-83
2023/07/07 05:36:32;;;;;;;0.98;0.93;;;25.10;90.20;;;;;;5112271;27;20193;-83
2023/07/07 05:39:01;;;;;;;1.35;0.82;;;25.10;90.30;;;;;;5092852;28;20200;-83
2023/07/07 05:41:29;;;;;;;0.98;0.75;;;25.10;90.10;;;;;;5116781;27;20215;-85
2023/07/07 05:43:57;;;;;;;0.80;0.73;;;25.20;90.20;;;;;;5117678;27;20790;-83
2023/07/07 05:46:26;;;;;;;1.55;1.27;;;25.20;90.10;;;;;;5109096;28;20212;-85
2023/07/07 05:48:56;;;;;;;0.85;0.65;;;25.20;90.10;;;;;;5097919;27;20192;-83
2023/07/07 05:51:25;;;;;;;0.28;0.28;;;25.20;90.00;;;;;;5102971;27;20654;-85
2023/07/07 05:53:53;;;;;;;1.35;1.05;;;25.20;89.70;;;;;;5095578;27;20200;-83
2023/07/07 05:56:24;;;;;;;1.75;1.05;;;25.20;89.70;;;;;;5106442;28;20201;-85
2023/07/07 05:58:54;;;;;;;2.25;1.63;;;25.30;89.70;;;;;;5090967;28;20193;-85
2023/07/07 06:01:24;;;;;;;0.68;0.68;;;25.30;89.60;;;;;;5101945;27;20193;-85
2023/07/07 06:03:53;;;;;;;1.30;0.95;;;25.40;89.50;;;;;;5116794;27;20208;-85
2023/07/07 06:06:23;;;;;;;5.32;1.00;;;25.50;89.40;;;;;;5118649;27;20196;-85
2023/07/07 06:08:51;;;;;;;0.63;0.63;;;25.50;89.30;;;;;;5092369;27;20232;-85
2023/07/07 06:11:20;;;;;;;0.70;0.70;;;25.60;89.20;;;;;;5094436;28;20665;-86
2023/07/07 06:13:48;;;;;;;1.25;1.15;;;25.60;89.20;;;;;;5096384;28;20188;-87
2023/07/07 06:16:18;;;;;;;0.98;0.38;;;25.60;88.90;;;;;;5100871;27;20228;-86
2023/07/07 06:18:47;;;;;;;0.40;0.40;;;25.70;89.00;;;;;;5090530;27;20208;-86
2023/07/07 06:21:15;;;;;;;0.35;0.35;;;25.80;89.00;;;;;;5094458;27;20189;-86
2023/07/07 06:23:45;;;;;;;1.27;0.73;;;25.80;88.80;;;;;;5096549;27;20593;-87
2023/07/07 06:26:13;;;;;;;0.43;0.43;;;25.90;88.80;;;;;;5106074;27;20189;-86
2023/07/07 06:28:42;;;;;;;0.68;0.65;;;25.90;88.50;;;;;;5101682;27;20212;-86
2023/07/07 06:31:10;;;;;;;1.30;0.82;;;26.00;88.40;;;;;;5099726;27;20246;-85
2023/07/07 06:33:42;;;;;;;1.10;0.77;;;26.10;88.20;;;;;;5110171;28;20254;-85
2023/07/07 06:36:10;;;;;;;3.65;0.93;;;26.10;88.20;;;;;;5104725;27;20318;-86
2023/07/07 06:38:39;;;;;;;1.63;1.42;;;26.20;88.00;;;;;;5104756;27;20652;-84
2023/07/07 06:41:11;;;;;;;0.88;0.88;;;26.20;87.80;;;;;;5098636;27;20193;-85
2023/07/07 06:43:39;;;;;;;0.57;0.55;;;26.30;87.90;;;;;;5103862;27;20658;-85
2023/07/07 06:46:11;;;;;;;1.85;0.73;;;26.40;87.90;;;;;;5103988;27;20196;-85
2023/07/07 06:48:39;;;;;;;2.05;0.40;;;26.40;87.90;;;;;;5106143;28;20287;-85
2023/07/07 06:51:08;;;;;;;0.68;0.40;;;26.50;87.50;;;;;;5087795;28;20217;-84
2023/07/07 06:53:37;;;;;;;1.92;1.35;;;26.50;87.40;;;;;;5092405;28;20541;-85
2023/07/07 06:56:05;;;;;;;0.70;0.68;;;26.60;86.70;;;;;;5096814;28;20193;-85
2023/07/07 06:58:36;;;;;;;0.55;0.55;;;26.70;86.80;;;;;;5107260;28;20197;-83
2023/07/07 07:01:04;;;;;;;1.20;1.08;;;26.80;86.60;;;;;;5099373;28;20220;-85
2023/07/07 07:03:33;;;;;;;1.02;0.93;;;26.80;85.90;;;;;;5109457;27;20192;-85
2023/07/07 07:06:01;;;;;;;0.60;0.40;;;26.90;85.40;;;;;;5091293;27;20210;-85
2023/07/07 07:08:30;;;;;;;1.80;0.88;;;26.90;84.00;;;;;;5099020;28;20232;-84
2023/07/07 07:11:00;;;;;;;2.45;0.93;;;27.00;82.60;;;;;;5098375;28;20283;-85
2023/07/07 07:13:28;;;;;;;1.13;1.02;;;27.10;82.80;;;;;;5102227;28;20575;-85
2023/07/07 07:15:58;;;;;;;1.23;1.13;;;27.20;82.70;;;;;;5106667;28;20227;-84
2023/07/07 07:18:26;;;;;;;0.60;0.60;;;27.20;81.80;;;;;;5094440;28;20201;-84
2023/07/07 07:20:55;;;;;;;2.75;0.57;;;27.30;82.00;;;;;;5087869;28;20662;-85
2023/07/07 07:23:24;;;;;;;1.50;0.70;;;27.30;82.20;;;;;;5098135;28;20189;-84
2023/07/07 07:25:52;;;;;;;1.23;0.73;;;27.40;82.30;;;;;;5095318;27;20220;-84
2023/07/07 07:28:20;;;;;;;0.60;0.57;;;27.50;82.00;;;;;;5094739;28;20224;-85
2023/07/07 07:30:50;;;;;;;0.60;0.60;;;27.50;81.70;;;;;;5092930;28;20186;-83
2023/07/07 07:33:22;;;;;;;0.70;0.70;;;27.50;81.00;;;;;;5098941;27;20188;-84
2023/07/07 07:35:51;;;;;;;1.23;0.80;;;27.60;81.60;;;;;;5090351;28;20194;-84
2023/07/07 07:38:21;;;;;;;0.82;0.40;;;27.70;80.90;;;;;;5092498;28;20190;-84
2023/07/07 07:40:52;;;;;;;0.93;0.70;;;27.70;79.60;;;;;;5095587;28;20189;-84
2023/07/07 07:43:21;;;;;;;0.60;0.50;;;27.80;78.70;;;;;;5092121;28;20725;-84
2023/07/07 07:45:50;;;;;;;0.90;0.70;;;27.90;79.10;;;;;;5102707;28;20243;-83
2023/07/07 07:48:20;;;;;;;0.77;0.77;;;27.90;79.50;;;;;;5097064;27;20644;-86
2023/07/07 07:50:48;;;;;;;2.92;1.00;;;28.00;79.70;;;;;;5105350;28;20241;-83
2023/07/07 07:53:18;;;;;;;1.20;0.55;;;28.10;79.50;;;;;;5099801;27;21859;-83
2023/07/07 07:55:46;;;;;;;0.60;0.52;;;28.10;78.20;;;;;;5093874;27;20200;-84
2023/07/07 07:58:15;;;;;;;0.80;0.65;;;28.10;76.60;;;;;;5103142;28;20190;-84
2023/07/07 08:00:43;;;;;;;1.95;0.63;;;28.20;76.00;;;;;;5098650;27;20639;-84
2023/07/07 08:03:11;;;;;;;0.50;0.22;;;28.20;76.60;;;;;;5111276;27;20196;-83
2023/07/07 08:05:41;;;;;;;2.28;1.50;;;28.20;76.00;;;;;;5106709;27;20217;-83
2023/07/07 08:08:10;;;;;;;1.85;1.05;;;28.40;76.70;;;;;;5098584;27;20221;-85
2023/07/07 08:10:39;;;;;;;0.30;0.30;;;28.40;76.50;;;;;;5111836;27;21068;-84
2023/07/07 08:13:08;;;;;;;1.17;0.50;;;28.50;76.80;;;;;;5097025;28;20220;-87
2023/07/07 08:15:36;;;;;;;0.73;0.73;;;28.60;76.80;;;;;;5094262;27;20548;-85
2023/07/07 08:18:05;;;;;;;1.10;0.82;;;28.60;76.00;;;;;;5093260;27;20210;-82
2023/07/07 08:20:33;;;;;;;0.70;0.70;;;28.70;76.10;;;;;;5122408;27;20197;-83
2023/07/07 08:23:03;;;;;;;0.90;0.65;;;28.80;76.10;;;;;;5100833;27;20200;-83
2023/07/07 08:25:34;;;;;;;1.02;0.88;;;28.80;76.10;;;;;;5115570;27;20220;-82
2023/07/07 08:28:02;;;;;;;1.65;0.40;;;28.90;75.80;;;;;;5099276;27;20196;-83
2023/07/07 08:30:33;;;;;;;0.70;0.70;;;29.00;75.50;;;;;;5104237;28;20246;-81
2023/07/07 08:33:02;;;;;;;1.02;0.65;;;29.10;75.40;;;;;;5103208;28;20224;-83
2023/07/07 08:35:30;;;;;;;0.90;0.50;;;29.10;73.90;;;;;;5099539;28;20197;-83
2023/07/07 08:37:59;;;;;;;2.05;0.88;;;29.20;73.20;;;;;;5102664;28;20189;-82
2023/07/07 08:40:36;;;;;;;0.70;0.70;;;29.20;73.00;;;;;;5094398;28;20197;-82
2023/07/07 08:43:04;;;;;;;1.08;0.93;;;29.30;73.20;;;;;;5095645;27;20187;-80
2023/07/07 08:45:33;;;;;;;2.15;0.82;;;29.40;72.50;;;;;;5096326;27;20310;-81
2023/07/07 08:48:12;;;;;;;0.45;0.45;;;29.50;72.80;;;;;;5103655;27;20707;-81
2023/07/07 08:50:48;;;;;;;0.40;0.40;;;29.60;73.10;;;;;;5093162;27;20622;-82
2023/07/07 08:53:41;;;;;;;0.55;0.50;;;29.60;72.20;;;;;;5093762;28;20654;-81
2023/07/07 08:56:19;;;;;;;2.05;0.43;;;29.70;72.90;;;;;;5103388;27;20202;-83
2023/07/07 08:58:58;;;;;;;2.30;1.30;;;29.80;73.10;;;;;;5101443;27;20288;-82
2023/07/07 09:01:44;;;;;;;0.75;0.60;;;29.90;73.30;;;;;;5096236;27;20217;-81
2023/07/07 09:04:24;;;;;;;0.75;0.60;;;30.00;73.00;;;;;;5096055;28;20201;-84
2023/07/07 09:07:15;;;;;;;1.02;0.82;;;30.00;71.10;;;;;;5109554;28;20279;-82
2023/07/07 09:10:00;;;;;;;1.48;0.57;;;30.10;71.80;;;;;;5102334;27;20261;-83
2023/07/07 09:12:38;;;;;;;1.15;0.85;;;30.10;70.30;;;;;;5094109;28;20193;-82
2023/07/07 09:15:16;;;;;;;0.60;0.57;;;30.10;70.20;;;;;;5091668;27;20229;-83
2023/07/07 09:17:49;;;;;;;0.25;0.25;;;30.10;70.30;;;;;;5103228;27;20197;-83
2023/07/07 09:20:20;;;;;;;0.52;0.52;;;30.10;70.20;;;;;;5093836;27;20262;-81
2023/07/07 09:22:52;;;;;;;0.60;0.60;;;30.10;70.30;;;;;;5099746;28;20287;-82
2023/07/07 09:25:25;;;;;;;1.73;1.10;;;30.10;69.90;;;;;;5098117;27;20189;-82
2023/07/07 09:28:16;;;;;;;0.82;0.70;;;30.10;70.10;;;;;;5102313;27;20679;-82
2023/07/07 09:30:48;;;;;;;1.10;1.00;;;30.10;69.90;;;;;;5096951;28;20189;-82
2023/07/07 09:33:19;;;;;;;0.47;0.47;;;30.10;69.60;;;;;;5090635;27;20566;-81
2023/07/07 09:36:01;;;;;;;0.50;0.40;;;30.10;69.90;;;;;;5114660;27;20199;-82
2023/07/07 09:38:50;;;;;;;1.40;1.17;;;30.20;70.20;;;;;;5113691;27;20197;-83
2023/07/07 09:41:26;;;;;;;0.75;0.45;;;30.30;70.00;;;;;;5119566;27;20226;-82
2023/07/07 09:44:13;;;;;;;0.77;0.60;;;30.30;69.40;;;;;;5114500;27;20199;-82
2023/07/07 09:46:52;;;;;;;1.75;0.68;;;30.40;69.90;;;;;;5099511;27;20201;-81
2023/07/07 09:49:26;;;;;;;0.40;0.40;;;30.40;69.10;;;;;;5089302;28;20196;-81
2023/07/07 09:52:02;;;;;;;0.43;0.43;;;30.50;69.20;;;;;;5100763;28;20186;-83
2023/07/07 09:54:32;;;;;;;0.60;0.50;;;30.50;69.10;;;;;;5097192;28;20467;-83
2023/07/07 09:57:04;;;;;;;1.00;0.95;;;30.50;69.20;;;;;;5096906;28;20189;-82
2023/07/07 09:59:41;;;;;;;1.00;0.93;;;30.60;69.40;;;;;;5108110;27;20193;-83
2023/07/07 10:02:16;;;;;;;0.80;0.57;;;30.60;69.00;;;;;;5103699;27;20286;-82
2023/07/07 10:04:51;;;;;;;0.93;0.90;;;30.60;69.20;;;;;;5099131;28;20287;-83
2023/07/07 10:07:20;;;;;;;0.90;0.50;;;30.60;68.60;;;;;;5091578;28;20292;-82
2023/07/07 10:09:49;;;;;;;3.63;1.75;;;30.70;68.30;;;;;;5099286;27;20197;-83
2023/07/07 10:12:18;;;;;;;1.95;0.60;;;30.80;68.60;;;;;;5102893;27;20737;-83
2023/07/07 10:15:00;;;;;;;0.73;0.73;;;30.80;68.30;;;;;;5107718;27;20200;-83
2023/07/07 10:17:48;;;;;;;0.32;0.32;;;30.90;68.40;;;;;;5099878;27;20192;-85
2023/07/07 10:20:17;;;;;;;0.68;0.60;;;31.00;68.70;;;;;;5100070;28;20193;-86
2023/07/07 10:22:45;;;;;;;7.55;0.88;;;31.00;67.10;;;;;;5102920;27;20202;-83
2023/07/07 10:25:14;;;;;;;0.55;0.55;;;31.00;66.70;;;;;;5097538;28;20194;-84
2023/07/07 10:27:50;;;;;;;0.40;0.40;;;31.00;66.40;;;;;;5089272;27;20228;-83
2023/07/07 10:30:20;;;;;;;0.73;0.70;;;31.00;66.10;;;;;;5104468;27;20650;-85
2023/07/07 10:32:53;;;;;;;1.05;0.60;;;31.10;67.50;;;;;;5098970;28;20201;-84
2023/07/07 10:35:25;;;;;;;0.40;0.40;;;31.20;67.20;;;;;;5095547;28;20601;-85
2023/07/07 10:37:53;;;;;;;0.63;0.47;;;31.30;67.50;;;;;;5097445;27;20266;-84
2023/07/07 10:40:25;;;;;;;0.63;0.55;;;31.30;66.10;;;;;;5101205;27;20224;-84
2023/07/07 10:42:56;;;;;;;1.60;0.70;;;31.30;66.10;;;;;;5101428;28;20197;-83
2023/07/07 10:45:26;;;;;;;1.58;1.13;;;31.40;64.50;;;;;;5100753;28;20201;-84
2023/07/07 10:47:55;;;;;;;2.45;1.42;;;31.50;65.20;;;;;;5089722;28;20245;-84
2023/07/07 10:50:26;;;;;;;0.82;0.60;;;31.60;65.40;;;;;;5094662;28;20211;-84
2023/07/07 10:53:26;;;;;;;1.63;0.90;;;31.60;64.30;;;;;;5094924;28;20199;-83
2023/07/07 10:56:22;;;;;;;1.38;0.65;;;31.60;61.10;;;;;;5103281;28;20189;-85
2023/07/07 10:59:17;;;;;;;0.45;0.45;;;31.70;63.10;;;;;;5096032;28;20627;-85
2023/07/07 11:01:59;;;;;;;1.17;0.60;;;31.80;62.40;;;;;;5091911;28;20220;-85
2023/07/07 11:04:45;;;;;;;1.25;0.70;;;31.90;63.10;;;;;;5096662;28;20197;-85
2023/07/07 11:07:28;;;;;;;0.55;0.43;;;32.00;63.70;;;;;;5094038;28;20216;-85
2023/07/07 11:10:15;;;;;;;0.82;0.50;;;32.10;64.10;;;;;;5091599;28;20197;-84
2023/07/07 11:12:54;;;;;;;3.13;1.38;;;32.20;63.20;;;;;;5101236;28;20200;-86
2023/07/07 11:15:28;;;;;;;1.65;0.57;;;32.20;60.80;;;;;;5090166;28;20197;-86
2023/07/07 11:18:10;;;;;;;0.73;0.30;;;32.30;61.20;;;;;;5108681;28;20196;-86
2023/07/07 11:20:56;;;;;;;0.40;0.40;;;32.40;61.70;;;;;;5096734;28;20196;-85
2023/07/07 11:23:40;;;;;;;0.40;0.40;;;32.40;61.50;;;;;;5102746;28;20578;-85
2023/07/07 11:26:19;;;;;;;2.92;0.57;;;32.50;61.70;;;;;;5097216;28;20208;-87
2023/07/07 11:28:55;;;;;;;2.35;0.90;;;32.60;61.90;;;;;;5108299;28;20197;-86
2023/07/07 11:31:46;;;;;;;2.15;0.68;;;32.60;60.80;;;;;;5096099;28;20627;-84
2023/07/07 11:34:31;;;;;;;1.00;0.45;;;32.70;61.00;;;;;;5105312;28;20563;-86
2023/07/07 11:37:16;;;;;;;0.50;0.35;;;32.80;61.30;;;;;;5108481;27;20284;-85
2023/07/07 11:40:08;;;;;;;0.22;0.22;;;32.80;61.40;;;;;;5102400;27;20197;-86
2023/07/07 11:42:49;;;;;;;0.93;0.75;;;32.90;60.80;;;;;;5102092;28;20294;-86
2023/07/07 11:45:31;;;;;;;1.48;1.02;;;32.90;60.30;;;;;;5104425;28;20200;-86
2023/07/07 11:48:21;;;;;;;1.45;0.85;;;32.90;59.70;;;;;;5108455;27;20619;-85
2023/07/07 11:51:11;;;;;;;0.50;0.50;;;33.00;59.90;;;;;;5117608;27;20197;-85
2023/07/07 11:54:00;;;;;;;0.50;0.50;;;33.00;59.20;;;;;;5091694;28;20909;-86
2023/07/07 11:56:45;;;;;;;0.40;0.40;;;33.10;59.30;;;;;;5093315;28;20386;-85
2023/07/07 11:59:32;;;;;;;3.17;1.05;;;33.20;58.90;;;;;;5107040;27;20188;-86
2023/07/07 12:02:02;;;;;;;0.30;0.30;;;33.20;58.90;;;;;;5113038;27;20204;-86
2023/07/07 12:04:38;;;;;;;2.47;1.17;;;33.40;59.60;;;;;;5099090;27;20672;-86
2023/07/07 12:07:16;;;;;;;1.30;0.60;;;33.40;59.20;;;;;;5096261;28;20213;-86
2023/07/07 12:09:50;;;;;;;0.95;0.30;;;33.50;59.40;;;;;;5102021;27;20288;-86
2023/07/07 12:12:26;;;;;;;0.80;0.73;;;33.60;59.30;;;;;;5095620;28;20190;-86
2023/07/07 12:14:59;;;;;;;1.40;0.55;;;33.70;59.20;;;;;;5093895;28;20189;-85
2023/07/07 12:17:36;;;;;;;3.00;0.80;;;33.70;59.00;;;;;;5095375;28;20197;-86
2023/07/07 12:20:14;;;;;;;0.50;0.50;;;33.70;58.30;;;;;;5104591;28;20192;-87
2023/07/07 12:22:46;;;;;;;0.68;0.45;;;33.80;58.60;;;;;;5108852;28;20557;-85
2023/07/07 12:25:23;;;;;;;0.50;0.50;;;33.70;58.40;;;;;;5109223;27;20665;-86
2023/07/07 12:27:52;;;;;;;0.22;0.22;;;33.60;58.50;;;;;;5096985;28;20229;-86
2023/07/07 12:30:24;;;;;;;1.42;1.33;;;33.60;58.30;;;;;;5096720;27;20259;-85
2023/07/07 12:32:53;;;;;;;0.98;0.63;;;33.50;58.50;;;;;;5094444;28;20200;-86
2023/07/07 12:35:27;;;;;;;5.97;1.85;;;33.40;58.40;;;;;;5093027;28;20197;-86
2023/07/07 12:38:13;;;;;;;0.40;0.30;;;33.40;58.40;;;;;;5093912;28;20677;-86
2023/07/07 12:40:43;;;;;;;2.13;0.88;;;33.40;58.40;;;;;;5097399;27;20275;-87
2023/07/07 12:43:22;;;;;;;1.15;0.65;;;33.30;58.40;;;;;;5098896;27;20185;-86
2023/07/07 12:45:53;;;;;;;0.45;0.45;;;33.30;59.30;;;;;;5096466;28;20196;-85
2023/07/07 12:48:27;;;;;;;4.13;1.10;;;33.40;58.60;;;;;;5096837;28;20625;-87
2023/07/07 12:51:00;;;;;;;0.98;0.47;;;33.40;58.90;;;;;;5114785;27;20193;-86
2023/07/07 12:53:34;;;;;;;2.58;0.47;;;33.40;58.80;;;;;;5096390;28;20197;-85
2023/07/07 12:56:14;;;;;;;0.45;0.45;;;33.30;58.60;;;;;;5115654;27;20191;-87
2023/07/07 12:58:45;;;;;;;1.20;0.63;;;33.30;58.80;;;;;;5104194;27;20222;-88
2023/07/07 13:01:36;;;;;;;0.60;0.60;;;33.20;58.50;;;;;;5104618;27;20286;-87
2023/07/07 13:04:37;;;;;;;0.63;0.60;;;33.20;58.60;;;;;;5099695;27;20197;-86
2023/07/07 13:07:06;;;;;;;0.55;0.55;;;33.20;58.60;;;;;;5099911;27;20217;-86
2023/07/07 13:09:48;;;;;;;0.25;0.25;;;33.20;58.70;;;;;;5112398;27;20238;-87
2023/07/07 13:12:45;;;;;;;0.35;0.35;;;33.10;58.80;;;;;;5092984;28;21560;-85
2023/07/07 13:15:18;;;;;;;0.47;0.47;;;33.20;58.90;;;;;;5092879;28;20195;-85